createdAt,value
2018-01-18T00:01:13.231Z,1.30
2018-01-18T00:03:40.801Z,1.30
2018-01-18T00:06:08.348Z,1.30
2018-01-18T00:08:35.916Z,1.30
2018-01-18T00:11:03.452Z,1.40
2018-01-18T00:13:31.006Z,1.40
2018-01-18T00:15:58.583Z,1.40
2018-01-18T00:18:26.145Z,1.50
2018-01-18T00:20:53.853Z,1.50
2018-01-18T00:23:22.153Z,1.40
2018-01-18T00:25:49.724Z,1.40
2018-01-18T00:28:17.264Z,1.40
2018-01-18T00:30:44.815Z,1.40
2018-01-18T00:33:13.139Z,1.40
2018-01-18T00:35:40.722Z,1.40
2018-01-18T00:38:08.264Z,1.50
2018-01-18T00:40:35.831Z,1.50
2018-01-18T00:43:03.412Z,1.50
2018-01-18T00:45:30.961Z,1.60
2018-01-18T00:47:58.547Z,1.60
2018-01-18T00:50:26.876Z,1.60
2018-01-18T00:52:54.443Z,1.60
2018-01-18T00:55:21.994Z,1.60
2018-01-18T00:57:49.555Z,1.60
2018-01-18T01:00:17.126Z,1.70
2018-01-18T01:02:44.681Z,1.70
2018-01-18T01:05:12.266Z,1.70
2018-01-18T01:07:39.826Z,1.70
2018-01-18T01:10:07.394Z,1.70
2018-01-18T01:12:35.714Z,1.70
2018-01-18T01:15:05.288Z,1.70
2018-01-18T01:17:33.616Z,1.70
2018-01-18T01:20:01.201Z,1.70
2018-01-18T01:22:28.774Z,1.70
2018-01-18T01:24:57.108Z,1.70
2018-01-18T01:27:24.656Z,1.70
2018-01-18T01:29:52.190Z,1.70
2018-01-18T01:32:19.758Z,1.70
2018-01-18T01:34:47.313Z,1.70
2018-01-18T01:37:14.890Z,1.70
2018-01-18T01:39:42.427Z,1.70
2018-01-18T01:42:09.993Z,1.80
2018-01-18T01:44:37.550Z,1.80
2018-01-18T01:47:05.136Z,1.90
2018-01-18T01:49:32.689Z,1.90
2018-01-18T01:52:00.230Z,1.90
2018-01-18T01:54:27.783Z,1.90
2018-01-18T01:56:56.096Z,1.90
2018-01-18T01:59:23.670Z,1.90
2018-01-18T02:01:51.212Z,1.90
2018-01-18T02:04:18.777Z,1.90
2018-01-18T02:06:46.372Z,1.90
2018-01-18T02:09:13.928Z,1.90
2018-01-18T02:11:41.482Z,2.00
2018-01-18T02:14:09.024Z,2.00
2018-01-18T02:16:36.598Z,2.00
2018-01-18T02:19:04.158Z,2.10
2018-01-18T02:21:31.735Z,2.10
2018-01-18T02:24:00.049Z,2.10
2018-01-18T02:26:27.608Z,2.00
2018-01-18T02:28:55.162Z,2.10
2018-01-18T02:31:22.733Z,2.10
2018-01-18T02:33:50.290Z,2.10
2018-01-18T02:36:17.856Z,2.10
2018-01-18T02:38:45.420Z,2.10
2018-01-18T02:41:12.983Z,2.10
2018-01-18T02:43:40.553Z,2.10
2018-01-18T02:46:08.110Z,2.20
2018-01-18T02:48:35.673Z,2.20
2018-01-18T02:51:03.243Z,2.10
2018-01-18T02:53:30.798Z,2.10
2018-01-18T02:55:58.346Z,2.10
2018-01-18T02:58:25.935Z,2.10
2018-01-18T03:00:53.485Z,2.10
2018-01-18T03:03:21.048Z,2.10
2018-01-18T03:05:48.608Z,2.10
2018-01-18T03:08:16.175Z,2.10
2018-01-18T03:10:43.746Z,2.10
2018-01-18T03:13:12.050Z,2.10
2018-01-18T03:15:39.627Z,2.00
2018-01-18T03:18:07.193Z,2.00
2018-01-18T03:20:34.790Z,2.00
2018-01-18T03:23:02.350Z,2.00
2018-01-18T03:25:29.897Z,2.00
2018-01-18T03:27:57.480Z,2.00
2018-01-18T03:30:25.811Z,2.00
2018-01-18T03:32:53.371Z,1.90
2018-01-18T03:35:20.954Z,2.00
2018-01-18T03:37:48.506Z,2.00
2018-01-18T03:40:16.057Z,1.90
2018-01-18T03:42:43.619Z,1.90
2018-01-18T03:45:11.154Z,2.00
2018-01-18T03:47:38.701Z,2.00
2018-01-18T03:50:06.283Z,2.00
2018-01-18T03:52:33.825Z,2.00
2018-01-18T03:55:01.388Z,2.00
2018-01-18T03:57:28.970Z,2.00
2018-01-18T03:59:56.521Z,2.00
2018-01-18T04:02:24.058Z,2.00
2018-01-18T04:04:51.633Z,2.00
2018-01-18T04:07:19.176Z,2.00
2018-01-18T04:09:46.731Z,2.00
2018-01-18T04:12:14.287Z,2.00
2018-01-18T04:14:42.606Z,2.00
2018-01-18T04:17:10.160Z,2.00
2018-01-18T04:19:37.744Z,2.00
2018-01-18T04:22:05.297Z,2.10
2018-01-18T04:24:32.850Z,2.10
2018-01-18T04:27:00.436Z,2.10
2018-01-18T04:29:27.976Z,2.10
2018-01-18T04:31:55.517Z,2.10
2018-01-18T04:34:23.104Z,2.10
2018-01-18T04:36:50.657Z,2.10
2018-01-18T04:39:18.205Z,2.20
2018-01-18T04:41:45.772Z,2.10
2018-01-18T04:44:13.307Z,2.10
2018-01-18T04:46:40.868Z,2.10
2018-01-18T04:49:08.427Z,2.10
2018-01-18T04:51:35.996Z,2.10
2018-01-18T04:54:03.553Z,2.20
2018-01-18T04:56:31.111Z,2.20
2018-01-18T04:58:58.666Z,2.20
2018-01-18T05:01:26.222Z,2.20
2018-01-18T05:03:53.798Z,2.20
2018-01-18T05:06:21.349Z,2.20
2018-01-18T05:08:48.883Z,2.20
2018-01-18T05:11:16.463Z,2.20
2018-01-18T05:13:43.995Z,2.20
2018-01-18T05:16:11.556Z,2.10
2018-01-18T05:18:39.124Z,2.10
2018-01-18T05:21:06.674Z,2.10
2018-01-18T05:23:34.234Z,2.00
2018-01-18T05:26:01.790Z,2.00
2018-01-18T05:28:30.110Z,2.00
2018-01-18T05:30:57.662Z,2.00
2018-01-18T05:33:25.220Z,2.00
2018-01-18T05:35:52.770Z,2.00
2018-01-18T05:38:20.303Z,2.00
2018-01-18T05:40:48.633Z,2.00
2018-01-18T05:43:16.163Z,2.00
2018-01-18T05:45:43.713Z,2.00
2018-01-18T05:48:11.289Z,2.00
2018-01-18T05:50:38.844Z,2.00
2018-01-18T05:53:06.403Z,2.00
2018-01-18T05:55:33.985Z,2.00
2018-01-18T05:58:01.519Z,2.00
2018-01-18T06:00:29.055Z,2.00
2018-01-18T06:02:57.407Z,1.90
2018-01-18T06:05:24.943Z,1.90
2018-01-18T06:07:52.503Z,1.90
2018-01-18T06:10:20.091Z,1.90
2018-01-18T06:12:48.422Z,1.90
2018-01-18T06:15:15.975Z,1.90
2018-01-18T06:17:43.560Z,1.80
2018-01-18T06:20:11.127Z,1.80
2018-01-18T06:22:38.696Z,1.80
2018-01-18T06:25:06.282Z,1.80
2018-01-18T06:27:34.589Z,1.80
2018-01-18T06:30:02.123Z,1.80
2018-01-18T06:32:30.453Z,1.80
2018-01-18T06:34:58.013Z,1.80
2018-01-18T06:37:25.565Z,1.80
2018-01-18T06:39:53.235Z,1.80
2018-01-18T06:42:20.770Z,1.80
2018-01-18T06:44:48.320Z,1.80
2018-01-18T06:47:15.885Z,1.80
2018-01-18T06:49:43.449Z,1.90
2018-01-18T06:52:10.992Z,2.00
2018-01-18T06:54:38.574Z,2.10
2018-01-18T06:57:06.128Z,2.20
2018-01-18T06:59:33.673Z,2.30
2018-01-18T07:02:01.267Z,2.30
2018-01-18T07:04:28.831Z,2.30
2018-01-18T07:06:56.386Z,2.40
2018-01-18T07:09:23.995Z,2.40
2018-01-18T07:11:51.539Z,2.40
2018-01-18T07:14:19.844Z,2.50
2018-01-18T07:16:47.416Z,2.40
2018-01-18T07:19:14.984Z,2.50
2018-01-18T07:21:42.644Z,2.50
2018-01-18T07:24:10.230Z,2.50
2018-01-18T07:26:37.767Z,2.50
2018-01-18T07:29:05.299Z,2.50
2018-01-18T07:31:32.865Z,2.50
2018-01-18T07:34:00.412Z,2.50
2018-01-18T07:36:27.959Z,2.60
2018-01-18T07:38:56.292Z,2.60
2018-01-18T07:41:23.859Z,2.60
2018-01-18T07:43:51.448Z,2.70
2018-01-18T07:46:19.011Z,2.70
2018-01-18T07:48:47.349Z,2.80
2018-01-18T07:51:14.902Z,2.80
2018-01-18T07:53:42.487Z,2.90
2018-01-18T07:56:10.052Z,2.90
2018-01-18T07:58:37.623Z,2.90
2018-01-18T08:01:05.970Z,3.00
2018-01-18T08:03:39.113Z,3.00
2018-01-18T08:06:07.535Z,3.10
2018-01-18T08:08:35.108Z,3.10
2018-01-18T08:11:02.657Z,3.20
2018-01-18T08:13:30.223Z,3.20
2018-01-18T08:15:57.760Z,3.20
2018-01-18T08:18:25.323Z,3.20
2018-01-18T08:20:52.897Z,3.20
2018-01-18T08:23:20.445Z,3.30
2018-01-18T08:25:48.002Z,3.30
2018-01-18T08:28:15.563Z,3.30
2018-01-18T08:30:43.127Z,3.30
2018-01-18T08:33:10.677Z,3.40
2018-01-18T08:35:38.263Z,3.40
2018-01-18T08:38:05.812Z,3.40
2018-01-18T08:40:33.351Z,3.40
2018-01-18T08:43:00.921Z,3.50
2018-01-18T08:45:28.466Z,3.50
2018-01-18T08:47:56.012Z,3.50
2018-01-18T08:50:23.570Z,3.50
2018-01-18T08:52:51.120Z,3.60
2018-01-18T08:55:19.428Z,3.70
2018-01-18T08:57:46.995Z,3.60
2018-01-18T09:00:14.560Z,3.70
2018-01-18T09:02:42.415Z,3.70
2018-01-18T09:05:09.994Z,3.80
2018-01-18T09:07:37.542Z,3.80
2018-01-18T09:10:05.083Z,3.90
2018-01-18T09:12:32.855Z,3.90
2018-01-18T09:15:00.421Z,3.90
2018-01-18T09:17:27.974Z,3.90
2018-01-18T09:19:55.695Z,4.00
2018-01-18T09:22:24.014Z,4.00
2018-01-18T09:24:51.550Z,4.00
2018-01-18T09:27:19.107Z,4.00
2018-01-18T09:29:46.662Z,4.00
2018-01-18T09:32:14.984Z,4.10
2018-01-18T09:34:42.545Z,4.10
2018-01-18T09:37:10.111Z,4.10
2018-01-18T09:39:37.671Z,4.10
2018-01-18T09:42:05.245Z,4.20
2018-01-18T09:44:32.807Z,4.20
2018-01-18T09:47:00.349Z,4.30
2018-01-18T09:49:27.934Z,4.40
2018-01-18T09:51:55.490Z,4.50
2018-01-18T09:54:23.031Z,4.60
2018-01-18T09:56:50.622Z,4.70
2018-01-18T09:59:18.944Z,5.00
2018-01-18T10:01:46.525Z,5.00
2018-01-18T10:04:14.062Z,5.10
2018-01-18T10:06:41.609Z,5.20
2018-01-18T10:09:09.153Z,5.30
2018-01-18T10:11:36.719Z,5.40
2018-01-18T10:14:04.271Z,5.40
2018-01-18T10:16:31.836Z,5.40
2018-01-18T10:18:59.395Z,5.50
2018-01-18T10:21:26.959Z,5.60
2018-01-18T10:23:54.527Z,5.60
2018-01-18T10:26:22.216Z,5.70
2018-01-18T10:28:49.773Z,5.80
2018-01-18T10:31:17.307Z,5.90
2018-01-18T10:33:44.895Z,6.00
2018-01-18T10:36:12.459Z,6.00
2018-01-18T10:38:39.995Z,6.10
2018-01-18T10:41:07.568Z,6.10
2018-01-18T10:43:35.115Z,6.10
2018-01-18T10:46:02.665Z,6.20
2018-01-18T10:48:30.257Z,6.20
2018-01-18T10:50:57.800Z,6.30
2018-01-18T10:53:25.355Z,6.30
2018-01-18T10:55:52.938Z,6.30
2018-01-18T10:58:20.492Z,6.30
2018-01-18T11:00:48.060Z,6.30
2018-01-18T11:03:15.629Z,6.40
2018-01-18T11:05:43.215Z,6.40
2018-01-18T11:08:11.533Z,6.50
2018-01-18T11:10:39.129Z,6.50
2018-01-18T11:13:06.671Z,6.60
2018-01-18T11:15:34.230Z,6.60
2018-01-18T11:18:01.819Z,6.60
2018-01-18T11:20:30.123Z,6.80
2018-01-18T11:22:57.663Z,6.80
2018-01-18T11:25:25.997Z,6.80
2018-01-18T11:27:53.546Z,6.90
2018-01-18T11:30:21.111Z,6.90
2018-01-18T11:32:48.704Z,6.90
2018-01-18T11:35:16.266Z,6.90
2018-01-18T11:37:44.592Z,7.00
2018-01-18T11:40:12.179Z,7.00
2018-01-18T11:42:39.716Z,7.10
2018-01-18T11:45:07.248Z,7.20
2018-01-18T11:47:34.821Z,7.30
2018-01-18T11:50:02.377Z,7.60
2018-01-18T11:52:29.915Z,7.80
2018-01-18T11:54:58.257Z,8.20
2018-01-18T11:57:25.800Z,8.20
2018-01-18T11:59:53.346Z,8.20
2018-01-18T12:02:20.920Z,8.30
2018-01-18T12:04:48.477Z,8.20
2018-01-18T12:07:16.051Z,8.20
2018-01-18T12:09:43.644Z,8.10
2018-01-18T12:12:11.984Z,7.90
2018-01-18T12:14:39.525Z,7.90
2018-01-18T12:17:07.101Z,7.90
2018-01-18T12:19:34.668Z,7.80
2018-01-18T12:22:02.237Z,7.80
2018-01-18T12:24:29.816Z,7.70
2018-01-18T12:26:58.144Z,7.60
2018-01-18T12:29:25.698Z,7.60
2018-01-18T12:31:53.260Z,7.60
2018-01-18T12:34:20.823Z,7.60
2018-01-18T12:36:48.379Z,7.60
2018-01-18T12:39:15.962Z,7.60
2018-01-18T12:41:44.449Z,7.60
2018-01-18T12:44:12.006Z,7.60
2018-01-18T12:46:39.582Z,7.60
2018-01-18T12:49:07.119Z,7.60
2018-01-18T12:51:34.674Z,7.60
2018-01-18T12:54:02.271Z,7.60
2018-01-18T12:56:30.602Z,7.70
2018-01-18T12:58:58.162Z,7.70
2018-01-18T13:01:25.761Z,7.70
2018-01-18T13:03:53.308Z,7.80
2018-01-18T13:06:20.883Z,7.80
2018-01-18T13:08:48.456Z,7.80
2018-01-18T13:11:16.798Z,7.80
2018-01-18T13:13:44.354Z,7.80
2018-01-18T13:16:11.928Z,7.80
2018-01-18T13:18:39.499Z,7.90
2018-01-18T13:21:07.835Z,7.90
2018-01-18T13:23:35.428Z,7.80
2018-01-18T13:26:02.977Z,7.90
2018-01-18T13:28:30.547Z,7.90
2018-01-18T13:30:58.124Z,7.90
2018-01-18T13:33:26.449Z,7.90
2018-01-18T13:35:54.007Z,7.90
2018-01-18T13:38:21.581Z,7.90
2018-01-18T13:40:49.137Z,8.00
2018-01-18T13:43:16.675Z,8.00
2018-01-18T13:45:44.449Z,8.10
2018-01-18T13:48:12.947Z,8.10
2018-01-18T13:50:40.504Z,8.10
2018-01-18T13:53:08.070Z,8.10
2018-01-18T13:55:35.610Z,8.10
2018-01-18T13:58:03.186Z,8.10
2018-01-18T14:00:30.779Z,8.10
2018-01-18T14:02:59.086Z,8.10
2018-01-18T14:05:26.651Z,8.10
2018-01-18T14:07:54.255Z,8.10
2018-01-18T14:10:21.808Z,8.20
2018-01-18T14:12:49.370Z,8.40
2018-01-18T14:15:16.956Z,8.50
2018-01-18T14:17:44.537Z,8.60
2018-01-18T14:20:12.079Z,8.70
2018-01-18T14:22:40.425Z,8.90
2018-01-18T14:25:07.975Z,8.90
2018-01-18T14:27:35.535Z,8.90
2018-01-18T14:30:03.121Z,9.00
2018-01-18T14:32:30.681Z,9.00
2018-01-18T14:34:58.996Z,9.10
2018-01-18T14:37:26.581Z,9.10
2018-01-18T14:39:54.127Z,9.10
2018-01-18T14:42:21.697Z,9.10
2018-01-18T14:44:49.274Z,9.00
2018-01-18T14:47:16.843Z,9.00
2018-01-18T14:49:45.154Z,8.80
2018-01-18T14:52:13.493Z,8.80
2018-01-18T14:54:41.057Z,8.80
2018-01-18T14:57:08.620Z,8.70
2018-01-18T14:59:36.978Z,8.70
2018-01-18T15:02:04.550Z,8.70
2018-01-18T15:04:32.119Z,8.60
2018-01-18T15:06:59.689Z,8.60
2018-01-18T15:09:27.248Z,8.50
2018-01-18T15:11:54.793Z,8.50
2018-01-18T15:14:22.369Z,8.50
2018-01-18T15:16:49.940Z,8.40
2018-01-18T15:19:18.250Z,8.40
2018-01-18T15:21:45.845Z,8.40
2018-01-18T15:24:13.405Z,8.40
2018-01-18T15:26:40.947Z,8.40
2018-01-18T15:29:08.529Z,8.40
2018-01-18T15:31:36.863Z,8.30
2018-01-18T15:34:04.440Z,8.30
2018-01-18T15:36:32.012Z,8.30
2018-01-18T15:38:59.556Z,8.30
2018-01-18T15:41:27.105Z,8.30
2018-01-18T15:43:54.682Z,8.30
2018-01-18T15:46:22.225Z,8.30
2018-01-18T15:48:49.768Z,8.30
2018-01-18T15:51:17.355Z,8.30
2018-01-18T15:53:44.899Z,8.30
2018-01-18T15:56:12.472Z,8.30
2018-01-18T15:58:40.067Z,8.30
2018-01-18T16:01:07.628Z,8.30
2018-01-18T16:03:35.203Z,8.30
2018-01-18T16:06:03.554Z,8.20
2018-01-18T16:08:31.101Z,8.20
2018-01-18T16:10:58.648Z,8.20
2018-01-18T16:13:26.230Z,8.10
2018-01-18T16:15:53.771Z,8.10
2018-01-18T16:18:21.329Z,8.10
2018-01-18T16:20:48.910Z,8.10
2018-01-18T16:23:16.468Z,8.10
2018-01-18T16:25:44.025Z,8.00
2018-01-18T16:28:11.587Z,8.00
2018-01-18T16:30:39.396Z,8.00
2018-01-18T16:33:07.827Z,8.10
2018-01-18T16:35:35.409Z,8.00
2018-01-18T16:38:02.958Z,8.10
2018-01-18T16:40:30.503Z,8.10
2018-01-18T16:42:58.078Z,8.10
2018-01-18T16:45:25.637Z,8.10
2018-01-18T16:47:53.197Z,8.10
2018-01-18T16:50:20.777Z,8.10
2018-01-18T16:52:49.115Z,8.10
2018-01-18T16:55:16.678Z,8.10
2018-01-18T16:57:44.262Z,8.10
2018-01-18T17:00:11.850Z,8.10
2018-01-18T17:02:40.167Z,8.10
2018-01-18T17:05:07.758Z,8.10
2018-01-18T17:07:35.321Z,8.10
2018-01-18T17:10:02.881Z,8.10
2018-01-18T17:12:30.454Z,8.20
2018-01-18T17:14:58.779Z,8.20
2018-01-18T17:17:26.319Z,8.20
2018-01-18T17:19:53.911Z,8.20
2018-01-18T17:22:21.465Z,8.20
2018-01-18T17:24:49.043Z,8.30
2018-01-18T17:27:16.631Z,8.30
2018-01-18T17:29:44.981Z,8.40
2018-01-18T17:32:12.572Z,8.40
2018-01-18T17:34:40.181Z,8.40
2018-01-18T17:37:07.722Z,8.40
2018-01-18T17:39:35.281Z,8.40
2018-01-18T17:42:02.857Z,8.40
2018-01-18T17:44:30.449Z,8.50
2018-01-18T17:46:58.002Z,8.50
2018-01-18T17:49:25.577Z,8.60
2018-01-18T17:51:53.128Z,8.50
2018-01-18T17:54:20.762Z,8.50
2018-01-18T17:56:48.359Z,8.60
2018-01-18T17:59:16.676Z,8.60
2018-01-18T18:01:44.235Z,8.60
2018-01-18T18:04:11.823Z,8.60
2018-01-18T18:06:39.394Z,8.60
2018-01-18T18:09:06.987Z,8.60
2018-01-18T18:11:35.322Z,8.60
2018-01-18T18:14:02.876Z,8.60
2018-01-18T18:16:30.471Z,8.60
2018-01-18T18:18:58.047Z,8.60
2018-01-18T18:21:26.383Z,8.60
2018-01-18T18:23:53.958Z,8.60
2018-01-18T18:26:21.517Z,8.60
2018-01-18T18:28:49.064Z,8.70
2018-01-18T18:31:16.631Z,8.70
2018-01-18T18:33:44.198Z,8.70
2018-01-18T18:36:11.748Z,8.70
2018-01-18T18:38:39.342Z,8.70
2018-01-18T18:41:07.667Z,8.70
2018-01-18T18:43:35.243Z,8.70
2018-01-18T18:46:02.821Z,8.80
2018-01-18T18:48:30.396Z,8.70
2018-01-18T18:50:58.736Z,8.70
2018-01-18T18:53:26.308Z,8.70
2018-01-18T18:55:53.873Z,8.70
2018-01-18T18:58:21.426Z,8.70
2018-01-18T19:00:49.036Z,8.60
2018-01-18T19:03:16.601Z,8.50
2018-01-18T19:05:44.135Z,8.50
2018-01-18T19:08:12.481Z,8.40
2018-01-18T19:10:40.042Z,8.40
2018-01-18T19:13:07.583Z,8.30
2018-01-18T19:15:35.239Z,8.30
2018-01-18T19:18:02.798Z,8.20
2018-01-18T19:20:30.357Z,8.20
2018-01-18T19:22:57.928Z,8.20
2018-01-18T19:25:25.495Z,8.20
2018-01-18T19:27:53.064Z,8.20
2018-01-18T19:30:20.641Z,8.20
2018-01-18T19:32:48.960Z,8.20
2018-01-18T19:35:17.782Z,8.20
2018-01-18T19:37:45.490Z,8.20
2018-01-18T19:40:13.824Z,8.10
2018-01-18T19:42:41.375Z,8.10
2018-01-18T19:45:08.943Z,8.10
2018-01-18T19:47:36.492Z,8.20
2018-01-18T19:50:04.044Z,8.20
2018-01-18T19:52:31.622Z,8.10
2018-01-18T19:54:59.195Z,8.10
2018-01-18T19:57:26.772Z,8.10
2018-01-18T19:59:55.131Z,8.10
2018-01-18T20:02:22.684Z,8.10
2018-01-18T20:04:50.228Z,8.10
2018-01-18T20:07:17.819Z,8.10
2018-01-18T20:09:45.373Z,8.10
2018-01-18T20:12:12.948Z,8.10
2018-01-18T20:14:41.304Z,8.00
2018-01-18T20:17:08.860Z,8.00
2018-01-18T20:19:36.403Z,8.00
2018-01-18T20:22:03.975Z,7.90
2018-01-18T20:24:31.543Z,7.90
2018-01-18T20:26:59.114Z,7.80
2018-01-18T20:29:26.693Z,7.80
2018-01-18T20:31:55.014Z,7.70
2018-01-18T20:34:22.574Z,7.70
2018-01-18T20:36:50.159Z,7.70
2018-01-18T20:39:18.490Z,7.50
2018-01-18T20:41:46.045Z,7.50
2018-01-18T20:44:13.606Z,7.50
2018-01-18T20:46:41.155Z,7.40
2018-01-18T20:49:08.729Z,7.20
2018-01-18T20:51:36.323Z,7.10
2018-01-18T20:54:03.891Z,7.00
2018-01-18T20:56:31.447Z,6.90
2018-01-18T20:58:59.742Z,6.80
2018-01-18T21:01:27.304Z,6.70
2018-01-18T21:03:54.855Z,6.70
2018-01-18T21:06:22.433Z,6.60
2018-01-18T21:08:50.734Z,6.60
2018-01-18T21:11:18.300Z,6.60
2018-01-18T21:13:45.887Z,6.50
2018-01-18T21:16:13.447Z,6.50
2018-01-18T21:18:41.011Z,6.50
2018-01-18T21:21:08.600Z,6.40
2018-01-18T21:23:36.927Z,6.30
2018-01-18T21:26:04.481Z,6.30
2018-01-18T21:28:32.071Z,6.30
2018-01-18T21:30:59.625Z,6.30
2018-01-18T21:33:27.172Z,6.30
2018-01-18T21:35:54.759Z,6.30
2018-01-18T21:38:22.309Z,6.30
2018-01-18T21:40:49.852Z,6.20
2018-01-18T21:43:17.425Z,6.20
2018-01-18T21:45:44.981Z,6.20
2018-01-18T21:48:12.534Z,6.20
2018-01-18T21:50:40.138Z,6.20
2018-01-18T21:53:07.663Z,6.10
2018-01-18T21:55:35.230Z,6.10
2018-01-18T21:58:02.822Z,6.00
2018-01-18T22:00:31.151Z,6.00
2018-01-18T22:02:58.699Z,6.00
2018-01-18T22:05:26.269Z,6.00
2018-01-18T22:07:53.827Z,6.00
2018-01-18T22:10:21.363Z,6.00
2018-01-18T22:12:48.938Z,6.00
2018-01-18T22:15:16.499Z,6.00
2018-01-18T22:17:44.049Z,5.90
2018-01-18T22:20:11.640Z,5.90
2018-01-18T22:22:39.178Z,5.90
2018-01-18T22:25:06.732Z,5.90
2018-01-18T22:27:34.315Z,5.90
2018-01-18T22:30:01.876Z,5.90
2018-01-18T22:32:29.429Z,5.90
2018-01-18T22:34:57.006Z,5.80
2018-01-18T22:37:24.538Z,5.80
2018-01-18T22:39:52.074Z,5.80
2018-01-18T22:42:19.646Z,5.90
2018-01-18T22:44:47.187Z,5.90
2018-01-18T22:47:14.746Z,5.90
2018-01-18T22:49:42.312Z,5.80
2018-01-18T22:52:09.875Z,5.80
2018-01-18T22:54:37.440Z,5.80
2018-01-18T22:57:05.034Z,5.80
2018-01-18T22:59:32.575Z,5.80
2018-01-18T23:02:00.116Z,5.70
2018-01-18T23:04:27.685Z,5.70
2018-01-18T23:06:55.232Z,5.60
2018-01-18T23:09:22.777Z,5.60
2018-01-18T23:11:50.365Z,5.60
2018-01-18T23:14:17.907Z,5.50
2018-01-18T23:16:45.444Z,5.50
2018-01-18T23:19:13.768Z,5.40
2018-01-18T23:21:41.331Z,5.40
2018-01-18T23:24:08.891Z,5.40
2018-01-18T23:26:36.476Z,5.40
2018-01-18T23:29:04.015Z,5.30
2018-01-18T23:31:31.585Z,5.30
2018-01-18T23:33:59.177Z,5.20
2018-01-18T23:36:27.512Z,5.20
2018-01-18T23:38:55.071Z,5.10
2018-01-18T23:41:22.653Z,5.10
2018-01-18T23:43:50.201Z,5.10
2018-01-18T23:46:17.749Z,5.00
2018-01-18T23:48:45.335Z,4.90
2018-01-18T23:51:12.899Z,4.90
2018-01-18T23:53:40.459Z,4.80
2018-01-18T23:56:08.022Z,4.80
2018-01-18T23:58:35.554Z,4.80
